createdAt,value
2023-05-09T00:02:29.223Z,53.90
2023-05-09T00:05:01.682Z,55.20
2023-05-09T00:07:32.249Z,55.30
2023-05-09T00:10:02.398Z,55.10
2023-05-09T00:12:32.793Z,53.50
2023-05-09T00:15:02.994Z,54.30
2023-05-09T00:17:33.928Z,54.20
2023-05-09T00:20:09.799Z,54.20
2023-05-09T00:22:40.337Z,53.80
2023-05-09T00:25:12.772Z,54.30
2023-05-09T00:27:44.705Z,55.50
2023-05-09T00:30:15.310Z,54.20
2023-05-09T00:32:45.883Z,54.60
2023-05-09T00:35:20.145Z,54.10
2023-05-09T00:37:50.676Z,54.70
2023-05-09T00:40:21.238Z,55.50
2023-05-09T00:42:52.877Z,55.00
2023-05-09T00:45:23.170Z,56.00
2023-05-09T00:47:53.646Z,56.10
2023-05-09T00:50:26.384Z,57.10
2023-05-09T00:52:59.254Z,56.90
2023-05-09T00:55:31.138Z,57.20
2023-05-09T00:58:02.919Z,57.30
2023-05-09T01:00:35.198Z,58.50
2023-05-09T01:03:07.167Z,58.50
2023-05-09T01:05:46.040Z,58.60
2023-05-09T01:08:24.346Z,59.50
2023-05-09T01:11:03.513Z,60.80
2023-05-09T01:13:39.458Z,60.90
2023-05-09T01:16:19.075Z,61.90
2023-05-09T01:18:54.060Z,62.60
2023-05-09T01:21:31.786Z,62.30
2023-05-09T01:24:23.473Z,62.20
2023-05-09T01:27:15.831Z,62.70
2023-05-09T01:29:49.965Z,63.00
2023-05-09T01:32:22.662Z,63.10
2023-05-09T01:34:57.096Z,63.80
2023-05-09T01:37:32.470Z,64.60
2023-05-09T01:40:11.677Z,65.00
2023-05-09T01:42:45.920Z,64.20
2023-05-09T01:45:19.753Z,64.20
2023-05-09T01:47:51.554Z,64.20
2023-05-09T01:50:23.144Z,64.70
2023-05-09T01:52:57.444Z,65.00
2023-05-09T01:55:30.256Z,65.20
2023-05-09T01:58:01.309Z,65.30
2023-05-09T02:00:34.908Z,65.60
2023-05-09T02:03:06.458Z,66.30
2023-05-09T02:05:37.160Z,66.30
2023-05-09T02:08:07.705Z,68.00
2023-05-09T02:10:39.833Z,68.30
2023-05-09T02:13:10.080Z,68.50
2023-05-09T02:15:42.518Z,69.50
2023-05-09T02:18:13.503Z,71.00
2023-05-09T02:20:43.614Z,70.60
2023-05-09T02:23:14.408Z,69.10
2023-05-09T02:25:45.339Z,68.60
2023-05-09T02:28:16.664Z,68.60
2023-05-09T02:30:50.479Z,68.60
2023-05-09T02:33:20.799Z,68.60
2023-05-09T02:35:51.318Z,68.40
2023-05-09T02:38:22.268Z,69.10
2023-05-09T02:40:53.824Z,70.10
2023-05-09T02:43:24.000Z,70.40
2023-05-09T02:45:55.902Z,70.20
2023-05-09T02:48:26.094Z,70.40
2023-05-09T02:50:56.469Z,70.30
2023-05-09T02:53:26.664Z,71.00
2023-05-09T02:55:57.046Z,70.20
2023-05-09T02:58:27.152Z,70.10
2023-05-09T03:00:59.142Z,70.30
2023-05-09T03:03:30.377Z,69.50
2023-05-09T03:06:00.565Z,70.70
2023-05-09T03:08:30.863Z,69.90
2023-05-09T03:11:01.119Z,69.30
2023-05-09T03:13:31.574Z,69.50
2023-05-09T03:16:03.316Z,69.20
2023-05-09T03:18:33.457Z,69.20
2023-05-09T03:21:04.369Z,67.90
2023-05-09T03:23:34.746Z,67.50
2023-05-09T03:26:05.739Z,68.10
2023-05-09T03:28:35.856Z,67.50
2023-05-09T03:31:07.811Z,67.70
2023-05-09T03:33:38.024Z,67.80
2023-05-09T03:36:08.485Z,68.00
2023-05-09T03:38:38.840Z,68.50
2023-05-09T03:41:09.094Z,68.20
2023-05-09T03:43:39.513Z,68.50
2023-05-09T03:46:11.388Z,69.50
2023-05-09T03:48:41.500Z,68.90
2023-05-09T03:51:11.702Z,69.70
2023-05-09T03:53:41.948Z,70.10
2023-05-09T03:56:12.304Z,70.10
2023-05-09T03:58:42.400Z,70.30
2023-05-09T04:01:14.379Z,70.20
2023-05-09T04:03:44.795Z,70.70
2023-05-09T04:06:15.048Z,70.90
2023-05-09T04:08:45.372Z,71.60
2023-05-09T04:11:15.566Z,73.00
2023-05-09T04:13:45.695Z,73.90
2023-05-09T04:16:17.553Z,74.80
2023-05-09T04:18:47.762Z,75.30
2023-05-09T04:21:18.085Z,76.60
2023-05-09T04:23:48.148Z,76.70
2023-05-09T04:26:19.135Z,75.30
2023-05-09T04:28:49.293Z,76.60
2023-05-09T04:31:21.912Z,76.90
2023-05-09T04:33:52.164Z,77.50
2023-05-09T04:36:22.848Z,78.00
2023-05-09T04:38:53.307Z,78.60
2023-05-09T04:41:23.636Z,79.30
2023-05-09T04:43:54.499Z,77.90
2023-05-09T04:46:26.466Z,78.20
2023-05-09T04:48:56.672Z,81.20
2023-05-09T04:51:27.234Z,83.30
2023-05-09T04:53:57.406Z,83.20
2023-05-09T04:56:28.003Z,84.50
2023-05-09T04:58:58.267Z,86.50
2023-05-09T05:01:30.093Z,89.30
2023-05-09T05:04:00.303Z,90.20
2023-05-09T05:06:30.683Z,90.40
2023-05-09T05:09:00.936Z,90.00
2023-05-09T05:11:31.145Z,89.70
2023-05-09T05:14:01.312Z,89.50
2023-05-09T05:16:33.196Z,89.20
2023-05-09T05:19:03.432Z,88.80
2023-05-09T05:21:33.728Z,88.00
2023-05-09T05:24:04.466Z,88.10
2023-05-09T05:26:34.545Z,88.30
2023-05-09T05:29:04.706Z,88.60
2023-05-09T05:31:36.955Z,86.90
2023-05-09T05:34:07.198Z,84.60
2023-05-09T05:36:37.705Z,83.60
2023-05-09T05:39:07.826Z,82.20
2023-05-09T05:41:38.358Z,81.20
2023-05-09T05:44:08.670Z,80.90
2023-05-09T05:46:40.503Z,80.90
2023-05-09T05:49:10.719Z,80.00
2023-05-09T05:51:40.830Z,80.30
2023-05-09T05:54:11.023Z,78.50
2023-05-09T05:56:41.210Z,78.50
2023-05-09T05:59:13.404Z,78.90
2023-05-09T06:01:45.526Z,78.00
2023-05-09T06:04:15.810Z,77.70
2023-05-09T06:06:46.134Z,76.70
2023-05-09T06:09:16.203Z,76.90
2023-05-09T06:11:46.371Z,77.30
2023-05-09T06:14:16.755Z,76.70
2023-05-09T06:16:48.805Z,78.00
2023-05-09T06:19:19.001Z,77.40
2023-05-09T06:21:49.504Z,78.60
2023-05-09T06:24:34.530Z,77.90
2023-05-09T06:27:06.170Z,78.50
2023-05-09T06:29:36.312Z,78.00
2023-05-09T06:32:08.416Z,77.80
2023-05-09T06:34:38.576Z,78.20
2023-05-09T06:37:08.962Z,77.70
2023-05-09T06:39:39.783Z,77.00
2023-05-09T06:42:10.268Z,77.90
2023-05-09T06:44:40.521Z,77.30
2023-05-09T06:47:12.376Z,78.20
2023-05-09T06:49:42.654Z,78.30
2023-05-09T06:52:13.591Z,80.10
2023-05-09T06:54:43.776Z,79.50
2023-05-09T06:57:14.214Z,80.80
2023-05-09T06:59:45.495Z,80.70
2023-05-09T07:02:17.274Z,81.60
2023-05-09T07:04:47.484Z,82.20
2023-05-09T07:07:18.089Z,82.20
2023-05-09T07:09:50.815Z,83.30
2023-05-09T07:12:23.248Z,83.90
2023-05-09T07:14:53.397Z,84.50
2023-05-09T07:17:25.903Z,85.20
2023-05-09T07:19:56.640Z,86.00
2023-05-09T07:22:28.764Z,86.90
2023-05-09T07:25:01.528Z,87.00
2023-05-09T07:27:31.700Z,87.80
2023-05-09T07:30:01.836Z,88.00
2023-05-09T07:32:33.940Z,87.60
2023-05-09T07:35:04.301Z,88.20
2023-05-09T07:37:34.510Z,88.50
2023-05-09T07:40:06.720Z,88.90
2023-05-09T07:42:36.914Z,88.80
2023-05-09T07:45:08.203Z,89.30
2023-05-09T07:47:40.337Z,90.20
2023-05-09T07:50:11.386Z,91.20
2023-05-09T07:52:41.604Z,91.30
2023-05-09T07:55:12.991Z,91.70
2023-05-09T07:57:43.279Z,92.60
2023-05-09T08:00:14.712Z,93.70
2023-05-09T08:02:46.660Z,94.10
2023-05-09T08:05:17.200Z,94.20
2023-05-09T08:07:47.646Z,94.50
2023-05-09T08:10:17.826Z,94.80
2023-05-09T08:12:48.093Z,95.10
2023-05-09T08:15:18.335Z,95.00
2023-05-09T08:17:50.191Z,95.30
2023-05-09T08:20:20.470Z,95.40
2023-05-09T08:22:50.680Z,95.60
2023-05-09T08:25:21.490Z,95.80
2023-05-09T08:27:52.965Z,95.90
2023-05-09T08:30:23.384Z,96.20
2023-05-09T08:32:55.249Z,97.10
2023-05-09T08:35:25.433Z,97.40
2023-05-09T08:37:55.762Z,98.00
2023-05-09T08:40:26.084Z,99.00
2023-05-09T08:42:56.869Z,99.90
2023-05-09T08:45:31.970Z,99.90
2023-05-09T08:48:06.135Z,99.90
2023-05-09T08:50:36.718Z,99.90
2023-05-09T08:53:07.468Z,99.90
2023-05-09T08:55:38.866Z,99.90
2023-05-09T08:58:09.705Z,99.90
2023-05-09T09:00:41.628Z,99.90
2023-05-09T09:03:13.495Z,99.90
2023-05-09T09:05:47.365Z,99.90
2023-05-09T09:08:18.286Z,99.90
2023-05-09T09:10:49.281Z,99.90
2023-05-09T09:13:20.843Z,99.90
2023-05-09T09:15:55.479Z,99.90
2023-05-09T09:18:32.247Z,99.90
2023-05-09T09:21:07.799Z,99.90
2023-05-09T09:23:39.681Z,99.90
2023-05-09T09:26:10.231Z,99.90
2023-05-09T09:28:40.468Z,99.90
2023-05-09T09:31:23.220Z,99.90
2023-05-09T09:33:55.498Z,99.90
2023-05-09T09:36:33.070Z,99.90
2023-05-09T09:39:05.403Z,99.90
2023-05-09T09:41:36.309Z,99.90
2023-05-09T09:44:13.402Z,99.90
2023-05-09T09:46:47.739Z,99.90
2023-05-09T09:49:20.857Z,99.90
2023-05-09T09:51:54.141Z,99.90
2023-05-09T09:54:25.138Z,99.90
2023-05-09T09:56:55.471Z,99.90
2023-05-09T09:59:28.001Z,99.90
2023-05-09T10:02:00.641Z,99.90
2023-05-09T10:04:34.078Z,99.90
2023-05-09T10:07:05.793Z,99.90
2023-05-09T10:09:38.500Z,99.90
2023-05-09T10:12:10.147Z,99.90
2023-05-09T10:14:43.782Z,99.90
2023-05-09T10:17:17.122Z,99.90
2023-05-09T10:19:51.438Z,99.90
2023-05-09T10:22:22.646Z,99.90
2023-05-09T10:25:01.164Z,99.90
2023-05-09T10:27:34.747Z,99.90
2023-05-09T10:30:11.210Z,99.90
2023-05-09T10:32:49.222Z,99.90
2023-05-09T10:35:22.382Z,99.90
2023-05-09T10:37:52.805Z,99.90
2023-05-09T10:40:23.758Z,99.90
2023-05-09T10:42:53.863Z,99.90
2023-05-09T10:45:24.996Z,99.90
2023-05-09T10:47:57.153Z,99.90
2023-05-09T10:50:29.154Z,99.90
2023-05-09T10:53:12.070Z,99.90
2023-05-09T10:55:51.824Z,99.90
2023-05-09T10:58:24.521Z,99.90
2023-05-09T11:00:57.268Z,99.90
2023-05-09T11:03:28.494Z,99.90
2023-05-09T11:06:01.554Z,99.90
2023-05-09T11:08:33.844Z,99.90
2023-05-09T11:11:09.473Z,99.90
2023-05-09T11:13:40.628Z,99.90
2023-05-09T11:16:14.423Z,99.90
2023-05-09T11:18:55.680Z,99.90
2023-05-09T11:21:28.255Z,99.90
2023-05-09T11:23:58.406Z,99.90
2023-05-09T11:26:32.763Z,99.90
2023-05-09T11:29:03.468Z,99.90
2023-05-09T11:31:33.611Z,99.90
2023-05-09T11:34:06.958Z,99.90
2023-05-09T11:36:39.208Z,99.90
2023-05-09T11:39:10.982Z,99.90
2023-05-09T11:41:46.480Z,99.90
2023-05-09T11:44:21.261Z,99.90
2023-05-09T11:46:52.749Z,99.90
2023-05-09T11:49:22.877Z,99.90
2023-05-09T11:51:54.572Z,99.90
2023-05-09T11:54:26.866Z,99.90
2023-05-09T11:56:57.294Z,99.90
2023-05-09T11:59:27.518Z,98.90
2023-05-09T12:02:07.046Z,99.70
2023-05-09T12:04:38.061Z,99.40
2023-05-09T12:07:23.271Z,98.70
2023-05-09T12:09:54.023Z,98.90
2023-05-09T12:12:24.257Z,98.60
2023-05-09T12:14:54.488Z,98.20
2023-05-09T12:17:24.859Z,98.90
2023-05-09T12:19:55.901Z,98.20
2023-05-09T12:22:28.029Z,98.00
2023-05-09T12:24:59.013Z,97.40
2023-05-09T12:27:29.548Z,96.60
2023-05-09T12:29:59.940Z,96.40
2023-05-09T12:32:33.456Z,96.80
2023-05-09T12:35:03.983Z,96.20
2023-05-09T12:37:35.809Z,95.80
2023-05-09T12:40:07.600Z,96.60
2023-05-09T12:42:38.573Z,94.70
2023-05-09T12:45:12.357Z,95.00
2023-05-09T12:47:42.878Z,95.30
2023-05-09T12:50:14.358Z,94.40
2023-05-09T12:53:01.389Z,95.10
2023-05-09T12:55:33.718Z,95.30
2023-05-09T12:58:05.090Z,95.10
2023-05-09T13:00:45.626Z,92.90
2023-05-09T13:03:26.629Z,94.70
2023-05-09T13:06:01.417Z,93.30
2023-05-09T13:08:33.711Z,92.70
2023-05-09T13:11:15.594Z,93.10
2023-05-09T13:13:46.572Z,93.90
2023-05-09T13:16:17.714Z,94.60
2023-05-09T13:18:48.278Z,94.30
2023-05-09T13:21:18.702Z,92.80
2023-05-09T13:23:50.794Z,92.10
2023-05-09T13:26:21.751Z,92.60
2023-05-09T13:28:52.249Z,92.40
2023-05-09T13:31:23.311Z,91.90
2023-05-09T13:33:54.108Z,91.10
2023-05-09T13:36:24.263Z,91.40
2023-05-09T13:38:58.043Z,90.90
2023-05-09T13:41:28.238Z,91.30
2023-05-09T13:43:58.765Z,90.40
2023-05-09T13:46:29.939Z,91.40
2023-05-09T13:49:00.218Z,92.30
2023-05-09T13:51:30.651Z,90.10
2023-05-09T13:54:02.685Z,91.10
2023-05-09T13:56:32.791Z,91.70
2023-05-09T13:59:03.009Z,91.20
2023-05-09T14:01:33.107Z,89.20
2023-05-09T14:04:03.648Z,86.00
2023-05-09T14:06:33.825Z,86.70
2023-05-09T14:09:05.633Z,86.30
2023-05-09T14:11:35.843Z,85.40
2023-05-09T14:14:06.050Z,90.40
2023-05-09T14:16:36.506Z,90.10
2023-05-09T14:19:07.755Z,90.50
2023-05-09T14:21:38.281Z,87.00
2023-05-09T14:24:12.561Z,84.90
2023-05-09T14:26:44.797Z,86.50
2023-05-09T14:29:15.480Z,83.30
2023-05-09T14:31:45.736Z,86.90
2023-05-09T14:34:16.065Z,85.30
2023-05-09T14:36:46.244Z,87.50
2023-05-09T14:39:17.949Z,87.20
2023-05-09T14:41:50.063Z,81.00
2023-05-09T14:44:20.282Z,84.80
2023-05-09T14:46:50.891Z,81.90
2023-05-09T14:49:20.986Z,80.90
2023-05-09T14:51:51.100Z,77.40
2023-05-09T14:54:23.044Z,83.80
2023-05-09T14:56:53.188Z,84.30
2023-05-09T14:59:23.444Z,76.10
2023-05-09T15:01:54.257Z,75.40
2023-05-09T15:04:26.163Z,76.60
2023-05-09T15:06:56.744Z,81.10
2023-05-09T15:09:29.077Z,80.60
2023-05-09T15:11:59.193Z,76.80
2023-05-09T15:14:29.498Z,79.30
2023-05-09T15:17:01.902Z,75.80
2023-05-09T15:19:34.787Z,74.80
2023-05-09T15:22:06.685Z,75.40
2023-05-09T15:24:39.091Z,76.20
2023-05-09T15:27:09.974Z,74.80
2023-05-09T15:29:42.717Z,72.10
2023-05-09T15:32:12.862Z,77.30
2023-05-09T15:34:43.065Z,75.70
2023-05-09T15:37:13.623Z,80.00
2023-05-09T15:39:46.292Z,77.50
2023-05-09T15:42:19.659Z,75.00
2023-05-09T15:44:49.980Z,80.20
2023-05-09T15:47:20.210Z,80.00
2023-05-09T15:49:50.350Z,79.00
2023-05-09T15:52:20.563Z,69.00
2023-05-09T15:54:53.072Z,71.10
2023-05-09T15:57:23.388Z,78.20
2023-05-09T15:59:55.817Z,71.20
2023-05-09T16:02:26.051Z,69.80
2023-05-09T16:04:56.214Z,65.40
2023-05-09T16:07:27.584Z,71.20
2023-05-09T16:09:59.500Z,69.60
2023-05-09T16:12:29.625Z,72.00
2023-05-09T16:15:00.178Z,66.30
2023-05-09T16:17:30.524Z,67.60
2023-05-09T16:20:01.099Z,67.90
2023-05-09T16:22:31.264Z,68.10
2023-05-09T16:25:03.115Z,65.00
2023-05-09T16:27:33.930Z,63.30
2023-05-09T16:30:04.290Z,64.80
2023-05-09T16:32:34.595Z,62.10
2023-05-09T16:35:05.390Z,68.30
2023-05-09T16:37:35.947Z,64.90
2023-05-09T16:40:08.672Z,63.50
2023-05-09T16:42:42.722Z,59.80
2023-05-09T16:45:13.555Z,61.00
2023-05-09T16:47:43.632Z,62.50
2023-05-09T16:50:14.533Z,63.00
2023-05-09T16:52:45.028Z,65.80
2023-05-09T16:55:16.932Z,60.90
2023-05-09T16:57:46.960Z,60.90
2023-05-09T17:00:18.001Z,58.80
2023-05-09T17:02:48.696Z,55.10
2023-05-09T17:05:19.311Z,57.90
2023-05-09T17:07:49.496Z,59.00
2023-05-09T17:10:21.719Z,59.40
2023-05-09T17:12:51.871Z,62.50
2023-05-09T17:15:22.395Z,64.00
2023-05-09T17:17:52.516Z,55.50
2023-05-09T17:20:22.760Z,59.00
2023-05-09T17:22:53.209Z,54.50
2023-05-09T17:25:25.188Z,58.10
2023-05-09T17:27:55.376Z,58.10
2023-05-09T17:30:25.912Z,56.20
2023-05-09T17:32:56.459Z,56.70
2023-05-09T17:35:27.051Z,57.80
2023-05-09T17:37:57.143Z,56.00
2023-05-09T17:40:29.396Z,56.90
2023-05-09T17:42:59.524Z,56.70
2023-05-09T17:45:29.828Z,58.80
2023-05-09T17:48:00.389Z,52.10
2023-05-09T17:50:30.612Z,54.60
2023-05-09T17:53:01.510Z,52.90
2023-05-09T17:55:33.654Z,54.00
2023-05-09T17:58:03.802Z,54.90
2023-05-09T18:00:34.557Z,53.30
2023-05-09T18:03:05.825Z,55.10
2023-05-09T18:05:36.211Z,55.60
2023-05-09T18:08:06.471Z,53.50
2023-05-09T18:10:38.194Z,54.30
2023-05-09T18:13:08.388Z,54.40
2023-05-09T18:15:38.819Z,55.40
2023-05-09T18:18:09.903Z,52.90
2023-05-09T18:20:40.841Z,53.10
2023-05-09T18:23:11.148Z,53.60
2023-05-09T18:25:43.644Z,52.70
2023-05-09T18:28:13.923Z,53.30
2023-05-09T18:30:44.656Z,53.70
2023-05-09T18:33:14.717Z,50.80
2023-05-09T18:35:45.442Z,49.90
2023-05-09T18:38:15.751Z,53.70
2023-05-09T18:40:48.107Z,54.00
2023-05-09T18:43:18.622Z,51.30
2023-05-09T18:45:49.814Z,52.00
2023-05-09T18:48:20.844Z,54.50
2023-05-09T18:50:53.336Z,53.30
2023-05-09T18:53:23.973Z,57.60
2023-05-09T18:55:56.911Z,51.90
2023-05-09T18:58:28.872Z,53.10
2023-05-09T19:00:59.636Z,52.80
2023-05-09T19:03:31.212Z,51.70
2023-05-09T19:06:01.919Z,54.60
2023-05-09T19:08:32.076Z,52.10
2023-05-09T19:11:03.871Z,47.40
2023-05-09T19:13:37.706Z,52.40
2023-05-09T19:16:09.043Z,52.60
2023-05-09T19:18:39.251Z,49.40
2023-05-09T19:21:10.062Z,52.90
2023-05-09T19:23:40.204Z,50.90
2023-05-09T19:26:12.415Z,52.30
2023-05-09T19:28:43.148Z,52.50
2023-05-09T19:31:14.327Z,50.30
2023-05-09T19:33:47.168Z,49.20
2023-05-09T19:36:19.115Z,52.30
2023-05-09T19:38:49.382Z,49.70
2023-05-09T19:41:22.206Z,50.00
2023-05-09T19:43:53.984Z,49.20
2023-05-09T19:46:24.466Z,50.90
2023-05-09T19:48:54.793Z,48.10
2023-05-09T19:51:25.106Z,49.80
2023-05-09T19:53:55.276Z,48.20
2023-05-09T19:56:27.070Z,50.60
2023-05-09T19:58:57.206Z,47.90
2023-05-09T20:01:27.577Z,51.50
2023-05-09T20:03:57.722Z,46.80
2023-05-09T20:06:27.925Z,46.80
2023-05-09T20:08:58.067Z,48.60
2023-05-09T20:11:29.824Z,48.00
2023-05-09T20:13:59.895Z,46.90
2023-05-09T20:16:30.268Z,46.20
2023-05-09T20:19:00.411Z,44.30
2023-05-09T20:21:30.583Z,44.70
2023-05-09T20:24:00.692Z,47.00
2023-05-09T20:26:32.935Z,45.70
2023-05-09T20:29:03.551Z,46.00
2023-05-09T20:31:34.037Z,45.60
2023-05-09T20:34:04.316Z,45.50
2023-05-09T20:36:34.451Z,44.80
2023-05-09T20:39:04.573Z,46.50
2023-05-09T20:41:36.586Z,43.90
2023-05-09T20:44:06.722Z,42.90
2023-05-09T20:46:37.316Z,47.30
2023-05-09T20:49:08.415Z,45.00
2023-05-09T20:51:38.810Z,43.00
2023-05-09T20:54:09.378Z,44.70
2023-05-09T20:56:41.209Z,43.90
2023-05-09T20:59:12.643Z,45.10
2023-05-09T21:01:44.803Z,46.30
2023-05-09T21:04:16.381Z,50.10
2023-05-09T21:06:46.870Z,45.60
2023-05-09T21:09:17.074Z,49.50
2023-05-09T21:11:48.876Z,46.90
2023-05-09T21:14:18.953Z,49.40
2023-05-09T21:16:49.887Z,47.20
2023-05-09T21:19:20.011Z,47.20
2023-05-09T21:21:50.666Z,43.50
2023-05-09T21:24:21.608Z,45.40
2023-05-09T21:26:53.656Z,45.70
2023-05-09T21:29:23.715Z,46.80
2023-05-09T21:31:54.380Z,47.60
2023-05-09T21:34:24.480Z,47.00
2023-05-09T21:36:54.785Z,46.60
2023-05-09T21:39:25.022Z,45.30
2023-05-09T21:41:56.849Z,45.70
2023-05-09T21:44:27.044Z,46.80
2023-05-09T21:46:57.239Z,47.40
2023-05-09T21:49:29.328Z,46.30
2023-05-09T21:51:59.747Z,46.10
2023-05-09T21:54:29.816Z,45.20
2023-05-09T21:57:01.487Z,46.00
2023-05-09T21:59:31.808Z,45.20
2023-05-09T22:02:02.173Z,47.20
2023-05-09T22:04:32.965Z,45.00
2023-05-09T22:07:04.084Z,45.80
2023-05-09T22:09:34.824Z,45.00
2023-05-09T22:12:07.081Z,48.00
2023-05-09T22:14:45.069Z,47.70
2023-05-09T22:17:23.135Z,45.70
2023-05-09T22:19:53.485Z,46.90
2023-05-09T22:22:23.719Z,46.80
2023-05-09T22:24:54.372Z,45.30
2023-05-09T22:27:26.887Z,44.70
2023-05-09T22:29:57.318Z,46.90
2023-05-09T22:32:27.557Z,45.30
2023-05-09T22:34:58.157Z,45.30
2023-05-09T22:37:28.321Z,47.40
2023-05-09T22:39:58.840Z,44.10
2023-05-09T22:42:31.383Z,44.30
2023-05-09T22:45:01.691Z,46.20
2023-05-09T22:47:31.877Z,47.10
2023-05-09T22:50:02.117Z,45.20
2023-05-09T22:52:32.311Z,45.30
2023-05-09T22:55:02.622Z,44.80
2023-05-09T22:57:34.660Z,46.70
2023-05-09T23:00:05.802Z,45.50
2023-05-09T23:02:36.389Z,45.20
2023-05-09T23:05:07.157Z,45.00
2023-05-09T23:07:37.966Z,46.70
2023-05-09T23:10:09.228Z,47.20
2023-05-09T23:12:41.224Z,48.10
2023-05-09T23:15:13.621Z,47.00
2023-05-09T23:17:44.467Z,46.60
2023-05-09T23:20:15.942Z,45.40
2023-05-09T23:22:48.272Z,45.80
2023-05-09T23:25:19.607Z,45.70
2023-05-09T23:27:54.997Z,46.10
2023-05-09T23:30:25.888Z,44.90
2023-05-09T23:32:57.031Z,46.70
2023-05-09T23:35:27.989Z,44.60
2023-05-09T23:37:58.335Z,46.30
2023-05-09T23:40:28.781Z,45.30
2023-05-09T23:43:00.690Z,46.30
2023-05-09T23:45:30.883Z,46.80
2023-05-09T23:48:01.181Z,46.70
2023-05-09T23:50:32.014Z,46.50
2023-05-09T23:53:02.336Z,47.50
2023-05-09T23:55:32.453Z,47.90
2023-05-09T23:58:04.643Z,47.00
